首页
METAR-TAF:

METAR-TAF

机场 :

臺灣桃園國際機場

臺北, 台湾

纬度: 25-05N, 经度: 121-13E, 海拔: 33米

当前天气观测

该预报发布于41分钟前的16:30 UTC
风速22节,风向东北,有时为32节阵风
温度 14°C
湿度 100%
气压 1022 hPa
能見度: 3500
散云层高于300英尺
多云层高于500英尺
多云层高于1000英尺

METAR: RCTP 161630Z 04022G32KT 3500 RA SCT003 BKN005 BKN010 14/14 Q1022 WS ALL RWY NOSIG RMK A3019

时间: 01:11 (17:11 UTC)

预报

该预报发布于6小时和11分钟前的11:00 UTC
预报有效从16日的 12点(UTC)到 17日的 18点(UTC)
风速20节,风向东转东北
能見度: 9000
散云层高于600英尺
多云层高于1100英尺
多云层高于2000英尺
短暂存在
从 16日的 12点(UTC)到 16日的 18点(UTC)
风速23节,风向东北,有时为33节阵风
能見度: 4000
少量云层高于300英尺
多云层高于600英尺
多云层高于1500英尺
短暂存在
从 16日的 20点(UTC)到 16日的 24点(UTC)
风速15节,风向东北
散云层高于1000英尺
多云层高于2000英尺
多云层高于4000英尺
成为
从 17日的 00点(UTC)到 17日的 02点(UTC)
少量云层高于1200英尺
多云层高于3200英尺
多云层高于6000英尺
短暂存在
从 17日的 06点(UTC)到 17日的 10点(UTC)
风速25节,风向东北
成为
从 17日的 12点(UTC)到 17日的 14点(UTC)
风速15节,风向

TAF: RCTP 161100Z 1612/1718 06020KT 9000 SCT006 BKN011 BKN020 TEMPO 1612/1618 04023G33KT 4000 RA FEW003 BKN006 BKN015 TEMPO 1620/1624 04015KT SCT010 BKN020 BKN040 BECMG 1700/1702 FEW012 BKN032 BKN060 TEMPO 1706/1710 05025KT BECMG 1712/1714 08015KT

超过4000个机场的气象观测和天气预报(METAR&TAF报告)。

可查询的气象台以黄色和红色小点在地图上表示。

将鼠标移到小点上方,可查看气象台名称。

然后点击查看天气观测和预报。

如需切换地图:点击带黑十字的绿色按钮放大地图;点击带横线的绿色按钮缩小地图;或者点击绿色箭头查看邻近地区的地图。


METAR-TAF: